Leonarisso — 9HA2413 — position and weather

sailwx.info

Track history (hours):
 
Tides and Currents Weather Stations Pressure Air Temp Water Temp Dewpoint Dewpoint Depression Visibility Wind Speed Wind Dir Waves Ship Positions

Leonarisso

Last reported at 2018-Apr-07 06:26 UTC. Time now 2018-Apr-25 06:27 UTC.
Position N 27°42' W 015°20'.
Warning: this ship's position is 18 days out of date.

; draft 9.2 m.

Type: Cargo ship. MMSI: 248561000.

Date/timePositionNaut miles runAvg speedWind from/ knotsBaromVisibWave heightAir tempDewpointWater temp
2018-Apr-07 06:26N 27°42' W 015°20'613.5
2018-Apr-07 06:00N 27°48' W 015°17'713.1
2018-Apr-07 05:30N 27°54' W 015°16'713.4
2018-Apr-07 05:00N 28°01' W 015°16'713.3
2018-Apr-07 04:30N 28°06' W 015°20'3 6.5
2018-Apr-07 03:59N 28°07' W 015°24'0 0.1
2018-Apr-07 03:29N 28°07' W 015°24'0 0.1
2018-Apr-07 02:59N 28°07' W 015°24'0 0.0
2018-Apr-07 02:29N 28°07' W 015°24'0 0.0
2018-Apr-07 01:59N 28°07' W 015°24'0 0.0
2018-Apr-07 01:29N 28°07' W 015°24'0 0.0
2018-Apr-07 00:59N 28°07' W 015°24'0 0.1
2018-Apr-07 00:29N 28°07' W 015°24'0 0.0
2018-Apr-06 23:50N 28°07' W 015°24'0 0.7
2018-Apr-06 23:30N 28°07' W 015°24'2 3.0
2018-Apr-06 22:58N 28°07' W 015°22'2 5.3
2018-Apr-06 22:30N 28°09' W 015°20'612.1
2018-Apr-06 22:00N 28°13' W 015°15'713.3
2018-Apr-06 21:30N 28°17' W 015°10'713.4
2018-Apr-06 21:00N 28°22' W 015°04'713.3
2018-Apr-06 20:30N 28°27' W 014°59'713.2
2018-Apr-06 20:00N 28°32' W 014°54'713.3
2018-Apr-06 19:30N 28°36' W 014°48'64312.7
2018-Apr-04 16:45N 35°57' W 005°34'311.0
2018-Apr-04 16:30N 35°58' W 005°31'510.4
2018-Apr-04 16:00N 35°60' W 005°25'5 9.7
2018-Apr-04 15:30N 36°01' W 005°19'  
2018-Mar-31 20:09N 37°09' E 000°06'511.0
2018-Mar-31 19:40N 37°09' E 000°12'211.5
2018-Mar-31 19:30N 37°09' E 000°15'611.7
2018-Mar-31 18:59N 37°08' E 000°22'  
Track history (hours):
 
Tides and Currents Weather Stations Pressure Air Temp Water Temp Dewpoint Dewpoint Depression Visibility Wind Speed Wind Dir Waves Ship Positions

Leonarisso

Last reported at 2018-Apr-07 06:26 UTC. Time now 2018-Apr-25 06:27 UTC.
Position N 27°42' W 015°20'.
Warning: this ship's position is 18 days out of date.

; draft 9.2 m.

Type: Cargo ship. MMSI: 248561000.

Date/timePositionNaut miles runAvg speedWind from/ knotsBaromVisibWave heightAir tempDewpointWater temp
2018-Apr-07 06:26N 27°42' W 015°20'613.5
2018-Apr-07 06:00N 27°48' W 015°17'713.1
2018-Apr-07 05:30N 27°54' W 015°16'713.4
2018-Apr-07 05:00N 28°01' W 015°16'713.3
2018-Apr-07 04:30N 28°06' W 015°20'3 6.5
2018-Apr-07 03:59N 28°07' W 015°24'0 0.1
2018-Apr-07 03:29N 28°07' W 015°24'0 0.1
2018-Apr-07 02:59N 28°07' W 015°24'0 0.0
2018-Apr-07 02:29N 28°07' W 015°24'0 0.0
2018-Apr-07 01:59N 28°07' W 015°24'0 0.0
2018-Apr-07 01:29N 28°07' W 015°24'0 0.0
2018-Apr-07 00:59N 28°07' W 015°24'0 0.1
2018-Apr-07 00:29N 28°07' W 015°24'0 0.0
2018-Apr-06 23:50N 28°07' W 015°24'0 0.7
2018-Apr-06 23:30N 28°07' W 015°24'2 3.0
2018-Apr-06 22:58N 28°07' W 015°22'2 5.3
2018-Apr-06 22:30N 28°09' W 015°20'612.1
2018-Apr-06 22:00N 28°13' W 015°15'713.3
2018-Apr-06 21:30N 28°17' W 015°10'713.4
2018-Apr-06 21:00N 28°22' W 015°04'713.3
2018-Apr-06 20:30N 28°27' W 014°59'713.2
2018-Apr-06 20:00N 28°32' W 014°54'713.3
2018-Apr-06 19:30N 28°36' W 014°48'64312.7
2018-Apr-04 16:45N 35°57' W 005°34'311.0
2018-Apr-04 16:30N 35°58' W 005°31'510.4
2018-Apr-04 16:00N 35°60' W 005°25'5 9.7
2018-Apr-04 15:30N 36°01' W 005°19'  
2018-Mar-31 20:09N 37°09' E 000°06'511.0
2018-Mar-31 19:40N 37°09' E 000°12'211.5
2018-Mar-31 19:30N 37°09' E 000°15'611.7
2018-Mar-31 18:59N 37°08' E 000°22'  

Dump ship's entire track history